createdAt,value
2019-05-17T00:00:07.494Z,7.70
2019-05-17T00:01:07.278Z,7.70
2019-05-17T00:02:06.907Z,7.60
2019-05-17T00:03:06.772Z,7.60
2019-05-17T00:04:07.024Z,7.60
2019-05-17T00:05:06.858Z,7.60
2019-05-17T00:06:06.636Z,7.60
2019-05-17T00:07:06.473Z,7.60
2019-05-17T00:08:09.862Z,7.60
2019-05-17T00:09:06.928Z,7.70
2019-05-17T00:10:06.721Z,7.60
2019-05-17T00:11:06.641Z,7.70
2019-05-17T00:12:07.274Z,7.70
2019-05-17T00:13:07.220Z,7.60
2019-05-17T00:14:09.818Z,7.70
2019-05-17T00:15:06.928Z,7.70
2019-05-17T00:16:07.166Z,7.70
2019-05-17T00:17:06.616Z,7.70
2019-05-17T00:18:06.635Z,7.60
2019-05-17T00:19:07.289Z,7.60
2019-05-17T00:20:06.266Z,7.60
2019-05-17T00:21:07.669Z,7.60
2019-05-17T00:22:07.112Z,7.60
2019-05-17T00:23:10.391Z,7.60
2019-05-17T00:24:10.403Z,7.60
2019-05-17T00:25:07.300Z,7.70
2019-05-17T00:26:07.096Z,7.70
2019-05-17T00:27:06.671Z,7.70
2019-05-17T00:28:07.032Z,7.70
2019-05-17T00:29:06.767Z,7.70
2019-05-17T00:30:06.559Z,7.60
2019-05-17T00:31:06.590Z,7.60
2019-05-17T00:32:06.388Z,7.60
2019-05-17T00:33:07.719Z,7.70
2019-05-17T00:34:07.116Z,7.60
2019-05-17T00:35:07.200Z,7.70
2019-05-17T00:36:06.933Z,7.60
2019-05-17T00:37:06.974Z,7.70
2019-05-17T00:38:06.560Z,7.70
2019-05-17T00:39:06.910Z,7.70
2019-05-17T00:40:07.247Z,7.60
2019-05-17T00:41:07.024Z,7.70
2019-05-17T00:42:06.909Z,7.60
2019-05-17T00:43:06.659Z,7.60
2019-05-17T00:44:06.265Z,7.60
2019-05-17T00:45:06.702Z,7.60
2019-05-17T00:46:17.150Z,7.60
2019-05-17T00:47:06.486Z,7.60
2019-05-17T00:48:09.784Z,7.60
2019-05-17T00:49:07.857Z,7.60
2019-05-17T00:50:07.216Z,7.60
2019-05-17T00:51:09.667Z,7.60
2019-05-17T00:52:09.751Z,7.60
2019-05-17T00:53:10.731Z,7.60
2019-05-17T00:54:06.762Z,7.60
2019-05-17T00:55:06.700Z,7.60
2019-05-17T00:56:06.593Z,7.50
2019-05-17T00:57:06.915Z,7.60
2019-05-17T00:58:06.650Z,7.60
2019-05-17T00:59:07.267Z,7.50
2019-05-17T01:00:05.489Z,7.60
2019-05-17T01:01:07.863Z,7.60
2019-05-17T01:02:06.914Z,7.60
2019-05-17T01:03:06.986Z,7.60
2019-05-17T01:04:06.659Z,7.50
2019-05-17T01:05:06.304Z,7.60
2019-05-17T01:06:06.269Z,7.60
2019-05-17T01:07:06.786Z,7.60
2019-05-17T01:08:07.126Z,7.60
2019-05-17T01:09:07.739Z,7.50
2019-05-17T01:10:07.005Z,7.60
2019-05-17T01:11:07.083Z,7.50
2019-05-17T01:12:07.034Z,7.50
2019-05-17T01:13:10.376Z,7.50
2019-05-17T01:14:06.767Z,7.50
2019-05-17T01:15:07.301Z,7.60
2019-05-17T01:16:07.277Z,7.50
2019-05-17T01:17:07.140Z,7.60
2019-05-17T01:18:07.117Z,7.50
2019-05-17T01:19:06.789Z,7.50
2019-05-17T01:20:06.792Z,7.60
2019-05-17T01:21:06.384Z,7.60
2019-05-17T01:22:07.468Z,7.50
2019-05-17T01:23:07.777Z,7.50
2019-05-17T01:24:06.795Z,7.50
2019-05-17T01:25:10.146Z,7.50
2019-05-17T01:26:07.283Z,7.50
2019-05-17T01:27:06.510Z,7.50
2019-05-17T01:28:07.721Z,7.50
2019-05-17T01:29:06.671Z,7.50
2019-05-17T01:30:06.807Z,7.60
2019-05-17T01:31:06.618Z,7.50
2019-05-17T01:32:06.694Z,7.50
2019-05-17T01:33:06.555Z,7.50
2019-05-17T01:34:07.118Z,7.50
2019-05-17T01:35:07.195Z,7.50
2019-05-17T01:36:06.758Z,7.50
2019-05-17T01:37:06.448Z,7.60
2019-05-17T01:38:07.035Z,7.60
2019-05-17T01:39:15.098Z,7.50
2019-05-17T01:40:06.723Z,7.50
2019-05-17T01:41:06.827Z,7.50
2019-05-17T01:42:06.746Z,7.50
2019-05-17T01:43:04.881Z,7.50
2019-05-17T01:44:07.459Z,7.50
2019-05-17T01:45:07.406Z,7.50
2019-05-17T01:46:07.980Z,7.50
2019-05-17T01:47:07.193Z,7.50
2019-05-17T01:48:07.256Z,7.50
2019-05-17T01:49:06.841Z,7.50
2019-05-17T01:50:06.739Z,7.50
2019-05-17T01:51:07.701Z,7.50
2019-05-17T01:52:04.763Z,7.50
2019-05-17T01:53:07.117Z,7.50
2019-05-17T01:54:06.800Z,7.50
2019-05-17T01:55:06.558Z,7.50
2019-05-17T01:56:06.321Z,7.50
2019-05-17T01:57:07.269Z,7.50
2019-05-17T01:58:07.243Z,7.50
2019-05-17T01:59:10.631Z,7.50
2019-05-17T02:00:06.352Z,7.50
2019-05-17T02:01:07.561Z,7.50
2019-05-17T02:02:07.006Z,7.50
2019-05-17T02:03:06.993Z,7.50
2019-05-17T02:04:06.573Z,7.50
2019-05-17T02:05:06.417Z,7.50
2019-05-17T02:06:10.631Z,7.50
2019-05-17T02:07:06.821Z,7.50
2019-05-17T02:08:06.582Z,7.40
2019-05-17T02:09:09.956Z,7.40
2019-05-17T02:10:07.302Z,7.40
2019-05-17T02:11:06.783Z,7.40
2019-05-17T02:12:06.645Z,7.50
2019-05-17T02:13:06.529Z,7.40
2019-05-17T02:14:06.800Z,7.40
2019-05-17T02:15:06.896Z,7.40
2019-05-17T02:16:07.128Z,7.40
2019-05-17T02:17:06.816Z,7.40
2019-05-17T02:18:06.964Z,7.40
2019-05-17T02:19:10.243Z,7.40
2019-05-17T02:20:06.397Z,7.40
2019-05-17T02:21:10.668Z,7.40
2019-05-17T02:22:07.419Z,7.40
2019-05-17T02:23:07.225Z,7.40
2019-05-17T02:24:10.746Z,7.40
2019-05-17T02:25:07.339Z,7.30
2019-05-17T02:26:06.608Z,7.40
2019-05-17T02:27:12.683Z,7.40
2019-05-17T02:28:05.596Z,7.40
2019-05-17T02:29:04.635Z,7.30
2019-05-17T02:30:07.246Z,7.40
2019-05-17T02:31:13.234Z,7.40
2019-05-17T02:32:08.001Z,7.40
2019-05-17T02:33:12.588Z,7.40
2019-05-17T02:34:09.826Z,7.40
2019-05-17T02:35:07.341Z,7.40
2019-05-17T02:36:05.268Z,7.40
2019-05-17T02:37:07.976Z,7.40
2019-05-17T02:38:04.955Z,7.40
2019-05-17T02:39:07.574Z,7.40
2019-05-17T02:40:08.156Z,7.40
2019-05-17T02:41:05.612Z,7.40
2019-05-17T02:42:09.734Z,7.40
2019-05-17T02:43:05.436Z,7.40
2019-05-17T02:44:05.578Z,7.40
2019-05-17T02:45:07.533Z,7.40
2019-05-17T02:46:05.421Z,7.40
2019-05-17T02:47:08.002Z,7.40
2019-05-17T02:48:05.042Z,7.30
2019-05-17T02:49:05.156Z,7.40
2019-05-17T02:50:05.927Z,7.40
2019-05-17T02:51:07.642Z,7.40
2019-05-17T02:52:05.619Z,7.30
2019-05-17T02:53:04.948Z,7.30
2019-05-17T02:54:05.109Z,7.30
2019-05-17T02:55:05.190Z,7.30
2019-05-17T02:56:07.935Z,7.40
2019-05-17T02:57:04.844Z,7.30
2019-05-17T02:58:07.422Z,7.30
2019-05-17T02:59:07.908Z,7.40
2019-05-17T03:00:04.973Z,7.30
2019-05-17T03:01:12.625Z,7.30
2019-05-17T03:02:04.806Z,7.30
2019-05-17T03:03:04.842Z,7.30
2019-05-17T03:04:12.775Z,7.30
2019-05-17T03:05:05.074Z,7.30
2019-05-17T03:06:13.535Z,7.30
2019-05-17T03:07:04.709Z,7.30
2019-05-17T03:08:04.867Z,7.30
2019-05-17T03:09:05.173Z,7.30
2019-05-17T03:10:17.894Z,7.30
2019-05-17T03:11:05.350Z,7.30
2019-05-17T03:12:05.389Z,7.20
2019-05-17T03:13:08.032Z,7.30
2019-05-17T03:14:07.518Z,7.30
2019-05-17T03:15:05.390Z,7.20
2019-05-17T03:16:05.437Z,7.30
2019-05-17T03:17:08.153Z,7.20
2019-05-17T03:18:05.162Z,7.30
2019-05-17T03:19:13.006Z,7.20
2019-05-17T03:20:05.210Z,7.20
2019-05-17T03:21:05.293Z,7.20
2019-05-17T03:22:07.712Z,7.20
2019-05-17T03:23:05.035Z,7.20
2019-05-17T03:24:07.566Z,7.20
2019-05-17T03:25:05.448Z,7.20
2019-05-17T03:26:05.535Z,7.20
2019-05-17T03:27:05.613Z,7.20
2019-05-17T03:28:08.169Z,7.20
2019-05-17T03:29:05.051Z,7.20
2019-05-17T03:30:07.736Z,7.20
2019-05-17T03:31:07.543Z,7.20
2019-05-17T03:32:08.264Z,7.20
2019-05-17T03:33:07.590Z,7.10
2019-05-17T03:34:06.921Z,7.10
2019-05-17T03:35:07.224Z,7.10
2019-05-17T03:36:06.690Z,7.10
2019-05-17T03:37:08.134Z,7.10
2019-05-17T03:38:07.718Z,7.10
2019-05-17T03:39:04.661Z,7.10
2019-05-17T03:40:23.282Z,7.10
2019-05-17T03:41:16.937Z,7.10
2019-05-17T03:42:05.375Z,7.10
2019-05-17T03:43:07.441Z,7.10
2019-05-17T03:44:05.394Z,7.10
2019-05-17T03:45:08.079Z,7.10
2019-05-17T03:46:04.935Z,7.10
2019-05-17T03:47:07.542Z,7.10
2019-05-17T03:48:05.483Z,7.10
2019-05-17T03:49:05.598Z,7.10
2019-05-17T03:50:05.275Z,7.10
2019-05-17T03:51:05.453Z,7.10
2019-05-17T03:52:08.060Z,7.10
2019-05-17T03:53:05.062Z,7.10
2019-05-17T03:54:05.292Z,7.10
2019-05-17T03:55:07.936Z,7.10
2019-05-17T03:56:07.375Z,7.10
2019-05-17T03:57:05.327Z,7.10
2019-05-17T03:58:05.438Z,7.10
2019-05-17T03:59:12.824Z,7.10
2019-05-17T04:00:07.480Z,7.10
2019-05-17T04:01:07.933Z,7.10
2019-05-17T04:02:04.824Z,7.10
2019-05-17T04:03:04.928Z,7.10
2019-05-17T04:04:05.000Z,7.10
2019-05-17T04:05:05.094Z,7.10
2019-05-17T04:06:05.262Z,7.10
2019-05-17T04:07:05.460Z,7.20
2019-05-17T04:08:08.232Z,7.20
2019-05-17T04:09:05.207Z,7.20
2019-05-17T04:10:07.941Z,7.20
2019-05-17T04:11:20.108Z,7.20
2019-05-17T04:12:08.101Z,7.20
2019-05-17T04:13:07.616Z,7.20
2019-05-17T04:14:05.671Z,7.20
2019-05-17T04:15:12.990Z,7.20
2019-05-17T04:16:08.505Z,7.20
2019-05-17T04:17:07.964Z,7.20
2019-05-17T04:18:05.118Z,7.20
2019-05-17T04:19:05.385Z,7.20
2019-05-17T04:20:08.122Z,7.20
2019-05-17T04:21:05.152Z,7.20
2019-05-17T04:22:05.175Z,7.30
2019-05-17T04:23:05.233Z,7.30
2019-05-17T04:24:05.422Z,7.20
2019-05-17T04:25:08.608Z,7.30
2019-05-17T04:26:08.198Z,7.30
2019-05-17T04:27:13.537Z,7.30
2019-05-17T04:28:05.658Z,7.30
2019-05-17T04:29:12.733Z,7.30
2019-05-17T04:30:08.288Z,7.30
2019-05-17T04:31:07.874Z,7.30
2019-05-17T04:32:04.986Z,7.30
2019-05-17T04:33:05.297Z,7.40
2019-05-17T04:34:07.984Z,7.40
2019-05-17T04:35:04.953Z,7.40
2019-05-17T04:36:12.889Z,7.40
2019-05-17T04:37:05.130Z,7.30
2019-05-17T04:38:05.195Z,7.40
2019-05-17T04:39:05.301Z,7.40
2019-05-17T04:40:07.941Z,7.40
2019-05-17T04:41:04.968Z,7.40
2019-05-17T04:42:07.690Z,7.50
2019-05-17T04:43:08.141Z,7.40
2019-05-17T04:44:05.047Z,7.50
2019-05-17T04:45:05.098Z,7.50
2019-05-17T04:46:07.381Z,7.50
2019-05-17T04:47:05.311Z,7.50
2019-05-17T04:48:05.338Z,7.50
2019-05-17T04:49:07.954Z,7.50
2019-05-17T04:50:04.951Z,7.50
2019-05-17T04:51:07.516Z,7.50
2019-05-17T04:52:07.985Z,7.60
2019-05-17T04:53:04.889Z,7.60
2019-05-17T04:54:12.831Z,7.60
2019-05-17T04:55:04.794Z,7.60
2019-05-17T04:56:07.423Z,7.60
2019-05-17T04:57:05.375Z,7.60
2019-05-17T04:58:05.417Z,7.60
2019-05-17T04:59:08.159Z,7.70
2019-05-17T05:00:05.106Z,7.60
2019-05-17T05:01:13.162Z,7.70
2019-05-17T05:02:08.096Z,7.70
2019-05-17T05:03:07.646Z,7.70
2019-05-17T05:04:08.269Z,7.70
2019-05-17T05:05:05.275Z,7.70
2019-05-17T05:06:07.308Z,7.70
2019-05-17T05:07:07.691Z,7.80
2019-05-17T05:08:05.710Z,7.80
2019-05-17T05:09:05.070Z,7.80
2019-05-17T05:10:05.254Z,7.80
2019-05-17T05:11:05.466Z,7.80
2019-05-17T05:12:06.324Z,7.80
2019-05-17T05:13:08.220Z,7.80
2019-05-17T05:14:05.151Z,7.80
2019-05-17T05:15:15.307Z,7.80
2019-05-17T05:16:05.176Z,7.80
2019-05-17T05:17:05.377Z,7.80
2019-05-17T05:18:07.929Z,7.90
2019-05-17T05:19:07.555Z,7.90
2019-05-17T05:20:08.229Z,7.90
2019-05-17T05:21:05.257Z,7.90
2019-05-17T05:22:07.856Z,7.90
2019-05-17T05:23:07.304Z,8.00
2019-05-17T05:24:07.841Z,8.00
2019-05-17T05:25:14.890Z,7.90
2019-05-17T05:26:11.977Z,8.00
2019-05-17T05:27:05.039Z,8.00
2019-05-17T05:28:05.317Z,8.00
2019-05-17T05:29:08.281Z,8.10
2019-05-17T05:30:05.248Z,8.10
2019-05-17T05:31:05.326Z,8.10
2019-05-17T05:32:05.417Z,8.10
2019-05-17T05:33:05.489Z,8.10
2019-05-17T05:34:08.255Z,8.10
2019-05-17T05:35:05.294Z,8.10
2019-05-17T05:36:08.029Z,8.20
2019-05-17T05:37:05.185Z,8.10
2019-05-17T05:38:05.342Z,8.10
2019-05-17T05:39:05.458Z,8.20
2019-05-17T05:40:12.573Z,8.20
2019-05-17T05:41:07.586Z,8.20
2019-05-17T05:42:09.853Z,8.20
2019-05-17T05:43:07.493Z,8.20
2019-05-17T05:44:05.633Z,8.20
2019-05-17T05:45:05.217Z,8.20
2019-05-17T05:46:11.645Z,8.30
2019-05-17T05:47:13.028Z,8.20
2019-05-17T05:48:05.599Z,8.30
2019-05-17T05:49:05.814Z,8.30
2019-05-17T05:50:12.144Z,8.30
2019-05-17T05:51:08.143Z,8.30
2019-05-17T05:52:05.083Z,8.30
2019-05-17T05:53:05.176Z,8.30
2019-05-17T05:54:05.534Z,8.40
2019-05-17T05:55:05.615Z,8.40
2019-05-17T05:56:07.187Z,8.40
2019-05-17T05:57:05.071Z,8.40
2019-05-17T05:58:05.126Z,8.40
2019-05-17T05:59:05.143Z,8.40
2019-05-17T06:00:05.212Z,8.40
2019-05-17T06:01:05.267Z,8.50
2019-05-17T06:02:07.869Z,8.50
2019-05-17T06:03:04.920Z,8.50
2019-05-17T06:04:07.618Z,8.50
2019-05-17T06:05:05.483Z,8.50
2019-05-17T06:06:05.323Z,8.50
2019-05-17T06:07:07.916Z,8.50
2019-05-17T06:08:07.415Z,8.60
2019-05-17T06:09:05.563Z,8.60
2019-05-17T06:10:08.296Z,8.60
2019-05-17T06:11:05.358Z,8.60
2019-05-17T06:12:20.680Z,8.60
2019-05-17T06:13:09.725Z,8.60
2019-05-17T06:14:05.609Z,8.60
2019-05-17T06:15:04.704Z,8.70
2019-05-17T06:16:04.787Z,8.70
2019-05-17T06:17:05.350Z,8.70
2019-05-17T06:18:05.407Z,8.70
2019-05-17T06:19:08.234Z,8.80
2019-05-17T06:20:12.943Z,8.80
2019-05-17T06:21:07.481Z,8.80
2019-05-17T06:22:05.564Z,8.80
2019-05-17T06:23:04.729Z,8.80
2019-05-17T06:24:07.853Z,8.90
2019-05-17T06:25:04.929Z,8.90
2019-05-17T06:26:07.600Z,8.90
2019-05-17T06:27:08.057Z,9.00
2019-05-17T06:28:04.984Z,8.90
2019-05-17T06:29:05.064Z,9.00
2019-05-17T06:30:05.160Z,9.00
2019-05-17T06:31:05.228Z,9.00
2019-05-17T06:32:07.902Z,9.10
2019-05-17T06:33:05.002Z,9.10
2019-05-17T06:34:07.444Z,9.10
2019-05-17T06:35:05.419Z,9.10
2019-05-17T06:36:05.613Z,9.20
2019-05-17T06:37:04.668Z,9.20
2019-05-17T06:38:04.703Z,9.20
2019-05-17T06:39:04.838Z,9.20
2019-05-17T06:40:05.010Z,9.20
2019-05-17T06:41:07.767Z,9.30
2019-05-17T06:42:04.696Z,9.30
2019-05-17T06:43:04.730Z,9.40
2019-05-17T06:44:07.189Z,9.40
2019-05-17T06:45:04.780Z,9.40
2019-05-17T06:46:05.060Z,9.40
2019-05-17T06:47:05.563Z,9.50
2019-05-17T06:48:07.627Z,9.50
2019-05-17T06:49:05.651Z,9.50
2019-05-17T06:50:07.406Z,9.60
2019-05-17T06:51:11.820Z,9.60
2019-05-17T06:52:04.990Z,9.70
2019-05-17T06:53:12.193Z,9.70
2019-05-17T06:54:05.467Z,9.70
2019-05-17T06:55:05.998Z,9.80
2019-05-17T06:56:05.065Z,9.80
2019-05-17T06:57:07.801Z,9.90
2019-05-17T06:58:04.814Z,9.90
2019-05-17T06:59:07.676Z,10.00
2019-05-17T07:00:07.599Z,10.00
2019-05-17T07:01:09.487Z,10.00
2019-05-17T07:02:05.732Z,10.00
2019-05-17T07:03:09.527Z,10.10
2019-05-17T07:04:05.654Z,10.10
2019-05-17T07:05:09.815Z,10.10
2019-05-17T07:06:04.835Z,10.10
2019-05-17T07:07:04.976Z,10.20
2019-05-17T07:08:05.498Z,10.10
2019-05-17T07:09:04.935Z,10.20
2019-05-17T07:10:07.376Z,10.30
2019-05-17T07:11:09.737Z,10.30
2019-05-17T07:12:10.379Z,10.40
2019-05-17T07:13:05.529Z,10.30
2019-05-17T07:14:05.573Z,10.40
2019-05-17T07:15:05.618Z,10.40
2019-05-17T07:16:07.445Z,10.40
2019-05-17T07:17:04.971Z,10.50
2019-05-17T07:18:10.016Z,10.50
2019-05-17T07:19:10.228Z,10.50
2019-05-17T07:20:10.203Z,10.50
2019-05-17T07:21:09.944Z,10.50
2019-05-17T07:22:05.221Z,10.60
2019-05-17T07:23:05.378Z,10.60
2019-05-17T07:24:05.560Z,10.60
2019-05-17T07:25:04.734Z,10.60
2019-05-17T07:26:04.809Z,10.60
2019-05-17T07:27:09.513Z,10.70
2019-05-17T07:28:04.929Z,10.70
2019-05-17T07:29:09.863Z,10.70
2019-05-17T07:30:05.064Z,10.80
2019-05-17T07:31:09.979Z,10.80
2019-05-17T07:32:09.686Z,10.80
2019-05-17T07:33:10.038Z,10.80
2019-05-17T07:34:05.358Z,10.80
2019-05-17T07:35:05.498Z,10.80
2019-05-17T07:36:07.283Z,10.90
2019-05-17T07:37:10.185Z,10.90
2019-05-17T07:38:05.655Z,10.90
2019-05-17T07:39:04.814Z,10.90
2019-05-17T07:40:05.297Z,11.00
2019-05-17T07:41:05.466Z,11.00
2019-05-17T07:42:05.651Z,11.00
2019-05-17T07:43:10.321Z,11.00
2019-05-17T07:44:04.758Z,11.00
2019-05-17T07:45:09.802Z,11.10
2019-05-17T07:46:05.176Z,11.10
2019-05-17T07:47:05.379Z,11.10
2019-05-17T07:48:09.733Z,11.10
2019-05-17T07:49:07.372Z,11.10
2019-05-17T07:50:10.811Z,11.20
2019-05-17T07:51:05.030Z,11.20
2019-05-17T07:52:05.056Z,11.20
2019-05-17T07:53:05.099Z,11.20
2019-05-17T07:54:10.572Z,11.20
2019-05-17T07:55:05.581Z,11.30
2019-05-17T07:56:05.632Z,11.30
2019-05-17T07:57:04.733Z,11.30
2019-05-17T07:58:09.695Z,11.40
2019-05-17T07:59:05.025Z,11.40
2019-05-17T08:00:12.779Z,11.50
2019-05-17T08:01:10.104Z,11.50
2019-05-17T08:02:05.118Z,11.50
2019-05-17T08:03:12.087Z,11.60
2019-05-17T08:04:09.956Z,11.60
2019-05-17T08:05:05.119Z,11.60
2019-05-17T08:06:05.333Z,11.60
2019-05-17T08:07:10.405Z,11.70
2019-05-17T08:08:05.181Z,11.70
2019-05-17T08:09:13.233Z,11.70
2019-05-17T08:10:07.674Z,11.70
2019-05-17T08:11:05.782Z,11.70
2019-05-17T08:12:04.811Z,11.70
2019-05-17T08:13:05.013Z,11.70
2019-05-17T08:14:10.016Z,11.80
2019-05-17T08:15:05.497Z,11.80
2019-05-17T08:16:05.613Z,11.80
2019-05-17T08:17:10.247Z,11.90
2019-05-17T08:18:05.402Z,11.90
2019-05-17T08:19:05.461Z,11.90
2019-05-17T08:20:10.015Z,12.00
2019-05-17T08:21:10.148Z,11.90
2019-05-17T08:22:05.448Z,11.90
2019-05-17T08:23:05.527Z,12.00
2019-05-17T08:24:10.239Z,12.00
2019-05-17T08:25:13.064Z,12.00
2019-05-17T08:26:10.632Z,12.10
2019-05-17T08:27:07.317Z,12.20
2019-05-17T08:28:05.300Z,12.10
2019-05-17T08:29:05.430Z,12.20
2019-05-17T08:30:10.370Z,12.30
2019-05-17T08:31:09.866Z,12.30
2019-05-17T08:32:04.941Z,12.30
2019-05-17T08:33:05.097Z,12.30
2019-05-17T08:34:05.500Z,12.30
2019-05-17T08:35:10.448Z,12.30
2019-05-17T08:36:05.326Z,12.40
2019-05-17T08:37:05.450Z,12.40
2019-05-17T08:38:05.650Z,12.30
2019-05-17T08:39:10.304Z,12.40
2019-05-17T08:40:05.441Z,12.40
2019-05-17T08:41:05.164Z,12.40
2019-05-17T08:42:10.423Z,12.40
2019-05-17T08:43:09.918Z,12.40
2019-05-17T08:44:04.922Z,12.40
2019-05-17T08:45:05.081Z,12.40
2019-05-17T08:46:05.163Z,12.40
2019-05-17T08:47:10.062Z,12.30
2019-05-17T08:48:09.491Z,12.30
2019-05-17T08:49:04.820Z,12.30
2019-05-17T08:50:07.449Z,12.30
2019-05-17T08:51:05.412Z,12.30
2019-05-17T08:52:05.527Z,12.20
2019-05-17T08:53:05.763Z,12.20
2019-05-17T08:54:10.422Z,12.30
2019-05-17T08:55:10.607Z,12.30
2019-05-17T08:56:09.930Z,12.30
2019-05-17T08:57:09.546Z,12.30
2019-05-17T08:58:05.150Z,12.30
2019-05-17T08:59:09.580Z,12.30
2019-05-17T09:00:04.666Z,12.30
2019-05-17T09:01:04.906Z,12.30
2019-05-17T09:02:05.095Z,12.30
2019-05-17T09:03:10.347Z,12.30
2019-05-17T09:04:04.732Z,12.30
2019-05-17T09:05:09.656Z,12.30
2019-05-17T09:06:04.980Z,12.30
2019-05-17T09:07:09.421Z,12.30
2019-05-17T09:08:05.521Z,12.20
2019-05-17T09:09:05.647Z,12.30
2019-05-17T09:10:04.703Z,12.30
2019-05-17T09:11:09.852Z,12.20
2019-05-17T09:12:05.018Z,12.20
2019-05-17T09:13:05.041Z,12.30
2019-05-17T09:14:05.186Z,12.20
2019-05-17T09:15:05.277Z,12.20
2019-05-17T09:16:05.513Z,12.20
2019-05-17T09:17:09.702Z,12.30
2019-05-17T09:18:09.800Z,12.20
2019-05-17T09:19:09.924Z,12.30
2019-05-17T09:20:05.201Z,12.20
2019-05-17T09:21:05.426Z,12.20
2019-05-17T09:22:07.351Z,12.20
2019-05-17T09:23:05.453Z,12.30
2019-05-17T09:24:15.800Z,12.30
2019-05-17T09:25:04.807Z,12.30
2019-05-17T09:26:04.946Z,12.30
2019-05-17T09:27:08.152Z,12.30
2019-05-17T09:28:05.026Z,12.20
2019-05-17T09:29:05.134Z,12.30
2019-05-17T09:30:05.362Z,12.30
2019-05-17T09:31:05.559Z,12.30
2019-05-17T09:32:04.758Z,12.20
2019-05-17T09:33:04.978Z,12.30
2019-05-17T09:34:05.171Z,12.30
2019-05-17T09:35:05.374Z,12.30
2019-05-17T09:36:05.483Z,12.30
2019-05-17T09:37:05.548Z,12.30
2019-05-17T09:38:05.602Z,12.40
2019-05-17T09:39:04.762Z,12.40
2019-05-17T09:40:09.318Z,12.40
2019-05-17T09:41:09.319Z,12.40
2019-05-17T09:42:05.625Z,12.40
2019-05-17T09:43:09.455Z,12.60
2019-05-17T09:44:12.709Z,12.60
2019-05-17T09:45:05.322Z,12.60
2019-05-17T09:46:05.495Z,12.60
2019-05-17T09:47:05.635Z,12.70
2019-05-17T09:48:04.727Z,12.70
2019-05-17T09:49:14.945Z,12.70
2019-05-17T09:50:09.660Z,12.80
2019-05-17T09:51:04.997Z,12.80
2019-05-17T09:52:05.138Z,12.80
2019-05-17T09:53:11.051Z,12.90
2019-05-17T09:54:10.392Z,12.90
2019-05-17T09:55:09.840Z,13.00
2019-05-17T09:56:05.024Z,13.00
2019-05-17T09:57:09.812Z,13.00
2019-05-17T09:58:04.913Z,13.10
2019-05-17T09:59:05.087Z,13.10
2019-05-17T10:00:05.288Z,13.10
2019-05-17T10:01:09.431Z,13.20
2019-05-17T10:02:05.593Z,13.20
2019-05-17T10:03:04.687Z,13.20
2019-05-17T10:04:04.869Z,13.20
2019-05-17T10:05:05.740Z,13.20
2019-05-17T10:06:04.968Z,13.20
2019-05-17T10:07:05.173Z,13.10
2019-05-17T10:08:05.258Z,13.10
2019-05-17T10:09:05.318Z,13.10
2019-05-17T10:10:05.435Z,13.00
2019-05-17T10:11:09.443Z,13.00
2019-05-17T10:12:09.503Z,13.00
2019-05-17T10:13:05.708Z,13.00
2019-05-17T10:14:04.852Z,12.90
2019-05-17T10:15:04.951Z,12.90
2019-05-17T10:16:05.367Z,12.90
2019-05-17T10:17:09.832Z,12.80
2019-05-17T10:18:10.959Z,12.70
2019-05-17T10:19:05.254Z,12.70
2019-05-17T10:20:10.493Z,12.70
2019-05-17T10:21:04.839Z,12.70
2019-05-17T10:22:07.522Z,12.70
2019-05-17T10:23:05.245Z,12.70
2019-05-17T10:24:05.396Z,12.70
2019-05-17T10:25:09.603Z,12.60
2019-05-17T10:26:04.820Z,12.60
2019-05-17T10:27:07.395Z,12.60
2019-05-17T10:28:09.962Z,12.60
2019-05-17T10:29:05.089Z,12.60
2019-05-17T10:30:10.056Z,12.60
2019-05-17T10:31:05.431Z,12.60
2019-05-17T10:32:10.333Z,12.60
2019-05-17T10:33:04.948Z,12.60
2019-05-17T10:34:05.020Z,12.60
2019-05-17T10:35:05.257Z,12.70
2019-05-17T10:36:07.945Z,12.70
2019-05-17T10:37:07.576Z,12.80
2019-05-17T10:38:05.150Z,12.70
2019-05-17T10:39:05.352Z,12.80
2019-05-17T10:40:10.073Z,12.90
2019-05-17T10:41:05.634Z,12.90
2019-05-17T10:42:04.921Z,12.90
2019-05-17T10:43:09.819Z,12.90
2019-05-17T10:44:05.183Z,13.00
2019-05-17T10:45:10.549Z,13.10
2019-05-17T10:46:07.636Z,13.10
2019-05-17T10:47:05.238Z,13.00
2019-05-17T10:48:10.157Z,13.10
2019-05-17T10:49:05.492Z,13.10
2019-05-17T10:50:07.479Z,13.20
2019-05-17T10:51:09.574Z,13.30
2019-05-17T10:52:05.074Z,13.30
2019-05-17T10:53:09.947Z,13.40
2019-05-17T10:54:05.212Z,13.40
2019-05-17T10:55:05.345Z,13.40
2019-05-17T10:56:05.414Z,13.50
2019-05-17T10:57:05.492Z,13.50
2019-05-17T10:58:09.912Z,13.70
2019-05-17T10:59:05.172Z,13.60
2019-05-17T11:00:09.968Z,13.70
2019-05-17T11:01:10.121Z,13.80
2019-05-17T11:02:05.354Z,13.70
2019-05-17T11:03:05.552Z,13.80
2019-05-17T11:04:04.757Z,13.80
2019-05-17T11:05:04.897Z,13.80
2019-05-17T11:06:10.673Z,13.90
2019-05-17T11:07:04.964Z,13.90
2019-05-17T11:08:05.666Z,13.90
2019-05-17T11:09:04.939Z,14.00
2019-05-17T11:10:11.133Z,14.10
2019-05-17T11:11:05.168Z,14.00
2019-05-17T11:12:10.315Z,14.10
2019-05-17T11:13:07.793Z,14.20
2019-05-17T11:14:04.769Z,14.20
2019-05-17T11:15:10.077Z,14.20
2019-05-17T11:16:07.616Z,14.30
2019-05-17T11:17:05.676Z,14.30
2019-05-17T11:18:04.958Z,14.30
2019-05-17T11:19:05.305Z,14.30
2019-05-17T11:20:08.081Z,14.40
2019-05-17T11:21:07.615Z,14.30
2019-05-17T11:22:05.525Z,14.40
2019-05-17T11:23:05.672Z,14.40
2019-05-17T11:24:04.890Z,14.40
2019-05-17T11:25:05.118Z,14.40
2019-05-17T11:26:07.729Z,14.40
2019-05-17T11:27:08.276Z,14.50
2019-05-17T11:28:05.366Z,14.40
2019-05-17T11:29:07.959Z,14.40
2019-05-17T11:30:04.875Z,14.40
2019-05-17T11:31:05.111Z,14.40
2019-05-17T11:32:07.766Z,14.40
2019-05-17T11:33:04.663Z,14.40
2019-05-17T11:34:04.791Z,14.40
2019-05-17T11:35:07.427Z,14.40
2019-05-17T11:36:05.434Z,14.40
2019-05-17T11:37:05.524Z,14.40
2019-05-17T11:38:04.773Z,14.40
2019-05-17T11:39:07.583Z,14.40
2019-05-17T11:40:08.092Z,14.40
2019-05-17T11:41:19.757Z,14.40
2019-05-17T11:42:07.357Z,14.40
2019-05-17T11:43:07.882Z,14.40
2019-05-17T11:44:04.962Z,14.40
2019-05-17T11:45:05.097Z,14.40
2019-05-17T11:46:05.049Z,14.40
2019-05-17T11:47:05.231Z,14.40
2019-05-17T11:48:05.574Z,14.40
2019-05-17T11:49:04.919Z,14.40
2019-05-17T11:50:05.064Z,14.40
2019-05-17T11:51:05.301Z,14.40
2019-05-17T11:52:05.494Z,14.50
2019-05-17T11:53:07.593Z,14.50
2019-05-17T11:54:05.628Z,14.50
2019-05-17T11:55:04.702Z,14.50
2019-05-17T11:56:04.766Z,14.60
2019-05-17T11:57:04.980Z,14.60
2019-05-17T11:58:10.469Z,14.60
2019-05-17T11:59:07.999Z,14.70
2019-05-17T12:00:07.617Z,14.70
2019-05-17T12:01:05.814Z,14.70
2019-05-17T12:02:05.110Z,14.70
2019-05-17T12:03:07.818Z,14.70
2019-05-17T12:04:04.999Z,14.70
2019-05-17T12:05:07.832Z,14.70
2019-05-17T12:06:07.319Z,14.70
2019-05-17T12:07:07.756Z,14.80
2019-05-17T12:08:08.720Z,14.70
2019-05-17T12:09:07.551Z,14.80
2019-05-17T12:10:05.829Z,14.70
2019-05-17T12:11:07.677Z,14.80
2019-05-17T12:12:08.271Z,14.80
2019-05-17T12:13:07.709Z,14.80
2019-05-17T12:14:07.271Z,14.80
2019-05-17T12:15:07.858Z,14.90
2019-05-17T12:16:07.310Z,14.90
2019-05-17T12:17:05.418Z,14.90
2019-05-17T12:18:08.108Z,14.90
2019-05-17T12:19:05.129Z,14.90
2019-05-17T12:20:07.820Z,14.90
2019-05-17T12:21:07.499Z,15.00
2019-05-17T12:22:05.721Z,15.00
2019-05-17T12:23:07.664Z,15.10
2019-05-17T12:24:08.209Z,15.00
2019-05-17T12:25:05.266Z,15.00
2019-05-17T12:26:05.462Z,15.10
2019-05-17T12:27:08.117Z,15.10
2019-05-17T12:28:07.580Z,15.10
2019-05-17T12:29:08.098Z,15.10
2019-05-17T12:30:05.193Z,15.10
2019-05-17T12:31:05.394Z,15.10
2019-05-17T12:32:05.783Z,15.10
2019-05-17T12:33:05.206Z,15.10
2019-05-17T12:34:05.347Z,15.20
2019-05-17T12:35:08.111Z,15.10
2019-05-17T12:36:05.334Z,15.10
2019-05-17T12:37:05.701Z,15.10
2019-05-17T12:38:12.580Z,15.10
2019-05-17T12:39:05.586Z,15.10
2019-05-17T12:40:04.778Z,15.20
2019-05-17T12:41:07.451Z,15.20
2019-05-17T12:42:05.534Z,15.10
2019-05-17T12:43:04.953Z,15.20
2019-05-17T12:44:07.646Z,15.20
2019-05-17T12:45:05.641Z,15.20
2019-05-17T12:46:04.832Z,15.20
2019-05-17T12:47:05.057Z,15.20
2019-05-17T12:48:05.333Z,15.30
2019-05-17T12:49:05.505Z,15.30
2019-05-17T12:50:05.756Z,15.30
2019-05-17T12:51:04.901Z,15.40
2019-05-17T12:52:07.635Z,15.40
2019-05-17T12:53:04.892Z,15.40
2019-05-17T12:54:05.226Z,15.30
2019-05-17T12:55:05.303Z,15.40
2019-05-17T12:56:08.019Z,15.40
2019-05-17T12:57:05.174Z,15.40
2019-05-17T12:58:05.310Z,15.40
2019-05-17T12:59:05.733Z,15.40
2019-05-17T13:00:05.045Z,15.50
2019-05-17T13:01:05.431Z,15.50
2019-05-17T13:02:08.051Z,15.50
2019-05-17T13:03:07.504Z,15.60
2019-05-17T13:04:05.534Z,15.50
2019-05-17T13:05:05.558Z,15.60
2019-05-17T13:06:08.103Z,15.60